Time;durP1;ratioP1;P1;durP2;ratioP2;P2;SDS_P1;SDS_P2;PMS_P1;PMS_P2;Temp;Humidity;BMP_temperature;BMP_pressure;BME280_temperature;BME280_humidity;BME280_pressure;Samples;Min_cycle;Max_cycle;Signal;HPM_P1;HPM_P2
2022/08/24 00:01:15;;;;;;;20.73;12.85;;;;;;;;;;8376693;28;20045;-90
2022/08/24 00:05:20;;;;;;;17.65;12.10;;;;;;;;;;8377025;28;20113;-89
2022/08/24 00:09:24;;;;;;;19.38;12.77;;;;;;;;;;8371585;28;20044;-90
2022/08/24 00:13:28;;;;;;;28.98;13.80;;;;;;;;;;8369295;28;20420;-91
2022/08/24 00:17:30;;;;;;;21.20;13.60;;;;;;;;;;8378545;28;20036;-89
2022/08/24 00:21:33;;;;;;;27.15;13.73;;;;;;;;;;8378469;28;20037;-90
2022/08/24 00:25:37;;;;;;;19.92;12.70;;;;;;;;;;8379489;28;20057;-89
2022/08/24 00:29:40;;;;;;;24.15;13.27;;;;;;;;;;8373485;28;20049;-90
2022/08/24 00:33:42;;;;;;;23.65;12.85;;;;;;;;;;8383095;28;20053;-90
2022/08/24 00:37:46;;;;;;;24.02;11.35;;;;;;;;;;8382889;28;20485;-90
2022/08/24 00:41:51;;;;;;;32.25;12.40;;;;;;;;;;8391743;28;20057;-90
2022/08/24 00:46:07;;;;;;;29.83;13.52;;;;;;;;;;8379033;28;20040;-89
2022/08/24 00:50:13;;;;;;;27.95;12.50;;;;;;;;;;8394375;28;20048;-89
2022/08/24 00:54:18;;;;;;;19.55;11.95;;;;;;;;;;8394025;28;20068;-90
2022/08/24 00:58:25;;;;;;;19.52;12.90;;;;;;;;;;8391604;28;20043;-91
2022/08/24 01:02:32;;;;;;;19.92;12.02;;;;;;;;;;8395138;28;20514;-90
2022/08/24 01:06:35;;;;;;;23.70;11.30;;;;;;;;;;8395187;28;20041;-91
2022/08/24 01:10:40;;;;;;;20.77;11.65;;;;;;;;;;8392625;28;20048;-90
2022/08/24 01:14:44;;;;;;;20.95;11.32;;;;;;;;;;8396333;28;20089;-91
2022/08/24 01:18:50;;;;;;;18.80;12.18;;;;;;;;;;8393211;28;20049;-90
2022/08/24 01:23:02;;;;;;;19.50;11.85;;;;;;;;;;8391472;28;20500;-89
2022/08/24 01:27:09;;;;;;;16.02;10.10;;;;;;;;;;8393616;28;20041;-89
2022/08/24 01:31:12;;;;;;;21.35;11.07;;;;;;;;;;8392290;28;20044;-90
2022/08/24 01:35:14;;;;;;;20.85;10.45;;;;;;;;;;8381468;28;20037;-90
2022/08/24 01:39:25;;;;;;;18.48;11.23;;;;;;;;;;8387503;28;20056;-90
2022/08/24 01:43:29;;;;;;;22.53;11.40;;;;;;;;;;8395359;28;20044;-90
2022/08/24 01:47:32;;;;;;;25.80;12.20;;;;;;;;;;8390103;28;20067;-90
2022/08/24 01:51:34;;;;;;;16.92;11.13;;;;;;;;;;8393900;28;20052;-90
2022/08/24 01:55:37;;;;;;;16.77;10.85;;;;;;;;;;8388864;28;20033;-90
2022/08/24 01:59:41;;;;;;;19.60;11.30;;;;;;;;;;8391926;28;20051;-89
2022/08/24 02:03:44;;;;;;;15.88;9.10;;;;;;;;;;8393828;28;20099;-90
2022/08/24 02:07:47;;;;;;;14.80;8.50;;;;;;;;;;8393112;28;20048;-88
2022/08/24 02:11:50;;;;;;;16.63;9.35;;;;;;;;;;8385618;28;20119;-90
2022/08/24 02:15:54;;;;;;;17.33;10.82;;;;;;;;;;8368015;28;20047;-91
2022/08/24 02:19:56;;;;;;;18.10;9.55;;;;;;;;;;8363650;28;20044;-90
2022/08/24 02:23:59;;;;;;;24.13;11.35;;;;;;;;;;8374933;28;20045;-90
2022/08/24 02:28:02;;;;;;;21.02;9.65;;;;;;;;;;8376824;28;20043;-91
2022/08/24 02:32:07;;;;;;;22.88;11.65;;;;;;;;;;8369754;28;20052;-90
2022/08/24 02:36:11;;;;;;;31.33;12.45;;;;;;;;;;8391487;28;20091;-90
2022/08/24 02:40:14;;;;;;;28.58;11.93;;;;;;;;;;8379532;28;20048;-90
2022/08/24 02:44:17;;;;;;;36.65;12.07;;;;;;;;;;8371928;28;20045;-90
2022/08/24 02:48:21;;;;;;;21.63;10.93;;;;;;;;;;8372380;28;20045;-90
2022/08/24 02:52:23;;;;;;;22.45;10.32;;;;;;;;;;8370933;28;20111;-90
2022/08/24 02:56:28;;;;;;;42.63;12.07;;;;;;;;;;8364565;28;20045;-90
2022/08/24 03:00:31;;;;;;;30.48;12.60;;;;;;;;;;8374078;28;20047;-92
2022/08/24 03:04:35;;;;;;;36.45;13.15;;;;;;;;;;8373521;28;20493;-90
2022/08/24 03:08:38;;;;;;;24.98;12.43;;;;;;;;;;8372345;28;20374;-91
2022/08/24 03:12:41;;;;;;;31.52;11.43;;;;;;;;;;8368742;28;20056;-90
2022/08/24 03:16:44;;;;;;;31.20;11.32;;;;;;;;;;8365324;28;20048;-90
2022/08/24 03:20:48;;;;;;;30.25;11.90;;;;;;;;;;8366883;28;20044;-90
2022/08/24 03:24:50;;;;;;;45.45;12.25;;;;;;;;;;8382822;28;20056;-91
2022/08/24 03:28:53;;;;;;;34.97;13.73;;;;;;;;;;8374565;28;20105;-91
2022/08/24 03:32:55;;;;;;;34.08;10.85;;;;;;;;;;8372037;28;20049;-90
2022/08/24 03:36:59;;;;;;;70.68;13.27;;;;;;;;;;8384918;28;20510;-91
2022/08/24 03:41:02;;;;;;;73.32;13.77;;;;;;;;;;8381839;28;20462;-90
2022/08/24 03:45:06;;;;;;;66.43;13.27;;;;;;;;;;8386456;28;20047;-90
2022/08/24 03:49:09;;;;;;;54.30;14.07;;;;;;;;;;8370049;28;20048;-90
2022/08/24 03:53:14;;;;;;;41.50;14.18;;;;;;;;;;8368615;28;20048;-91
2022/08/24 03:57:17;;;;;;;31.63;14.13;;;;;;;;;;8391977;28;20047;-90
2022/08/24 04:01:20;;;;;;;46.97;13.45;;;;;;;;;;8383114;28;20063;-90
2022/08/24 04:05:22;;;;;;;42.85;14.27;;;;;;;;;;8376581;28;20044;-90
2022/08/24 04:09:26;;;;;;;36.78;13.50;;;;;;;;;;8370552;28;20045;-90
2022/08/24 04:13:30;;;;;;;34.03;14.60;;;;;;;;;;8368403;28;20048;-90
2022/08/24 04:17:33;;;;;;;32.13;15.27;;;;;;;;;;8384785;28;20048;-91
2022/08/24 04:21:37;;;;;;;43.50;26.17;;;;;;;;;;8376826;28;20040;-90
2022/08/24 04:25:43;;;;;;;32.22;17.30;;;;;;;;;;8385625;28;20493;-90
2022/08/24 04:29:45;;;;;;;30.20;15.73;;;;;;;;;;8372349;28;20099;-91
2022/08/24 04:33:49;;;;;;;32.88;15.35;;;;;;;;;;8368952;28;20455;-90
2022/08/24 04:37:52;;;;;;;33.65;16.25;;;;;;;;;;8383096;28;20524;-91
2022/08/24 04:41:56;;;;;;;31.00;16.80;;;;;;;;;;8370651;28;20044;-91
2022/08/24 04:45:59;;;;;;;28.75;15.10;;;;;;;;;;8366758;28;20067;-90
2022/08/24 04:50:02;;;;;;;31.05;16.42;;;;;;;;;;8380587;28;20049;-91
2022/08/24 04:54:06;;;;;;;35.58;20.60;;;;;;;;;;8380820;28;20045;-91
2022/08/24 04:58:10;;;;;;;40.40;20.73;;;;;;;;;;8377881;28;20130;-90
2022/08/24 05:02:13;;;;;;;40.55;20.50;;;;;;;;;;8380143;28;20040;-90
2022/08/24 05:06:17;;;;;;;36.65;19.23;;;;;;;;;;8367255;28;20120;-91
2022/08/24 05:10:20;;;;;;;38.55;19.92;;;;;;;;;;8380111;28;20044;-90
2022/08/24 05:14:25;;;;;;;38.03;19.73;;;;;;;;;;8379485;28;20123;-91
2022/08/24 05:18:28;;;;;;;40.53;19.52;;;;;;;;;;8385675;28;20068;-91
2022/08/24 05:22:31;;;;;;;35.50;20.10;;;;;;;;;;8370173;28;20041;-91
2022/08/24 05:26:33;;;;;;;36.15;20.63;;;;;;;;;;8383889;28;20404;-90
2022/08/24 05:30:38;;;;;;;35.97;19.85;;;;;;;;;;8382778;28;20079;-90
2022/08/24 05:34:40;;;;;;;32.97;20.33;;;;;;;;;;8376680;28;20056;-90
2022/08/24 05:38:43;;;;;;;30.02;18.88;;;;;;;;;;8377439;28;20144;-90
2022/08/24 05:42:47;;;;;;;25.75;18.23;;;;;;;;;;8389317;28;20044;-89
2022/08/24 05:46:52;;;;;;;30.48;19.73;;;;;;;;;;8386035;28;20052;-89
2022/08/24 05:50:55;;;;;;;35.17;19.73;;;;;;;;;;8387314;28;20605;-89
2022/08/24 05:54:59;;;;;;;32.83;20.25;;;;;;;;;;8388803;28;20045;-89
2022/08/24 05:59:01;;;;;;;32.03;20.85;;;;;;;;;;8387005;28;20056;-89
2022/08/24 06:03:06;;;;;;;33.05;18.85;;;;;;;;;;8383899;28;20603;-89
2022/08/24 06:07:10;;;;;;;44.10;23.05;;;;;;;;;;8391557;28;20068;-91
2022/08/24 06:11:23;;;;;;;64.75;30.10;;;;;;;;;;8388223;28;20041;-88
2022/08/24 06:15:25;;;;;;;60.00;30.92;;;;;;;;;;8369202;28;20412;-90
2022/08/24 06:19:29;;;;;;;57.85;28.88;;;;;;;;;;8384112;28;20083;-89
2022/08/24 06:23:32;;;;;;;59.40;28.95;;;;;;;;;;8383705;28;20127;-88
2022/08/24 06:27:35;;;;;;;49.60;28.98;;;;;;;;;;8393230;28;20118;-89
2022/08/24 06:31:39;;;;;;;36.70;26.52;;;;;;;;;;8375480;28;20041;-89
2022/08/24 06:35:44;;;;;;;37.30;28.02;;;;;;;;;;8376136;28;20049;-88
2022/08/24 06:39:46;;;;;;;39.22;26.92;;;;;;;;;;8384406;28;20067;-89
2022/08/24 06:43:48;;;;;;;39.60;28.90;;;;;;;;;;8374442;28;20045;-89
2022/08/24 06:47:51;;;;;;;38.63;26.13;;;;;;;;;;8389684;28;20052;-89
2022/08/24 06:51:55;;;;;;;38.65;25.42;;;;;;;;;;8376814;28;20472;-89
2022/08/24 06:55:59;;;;;;;33.22;25.27;;;;;;;;;;8384775;28;20098;-89
2022/08/24 07:00:03;;;;;;;43.58;29.20;;;;;;;;;;8387506;28;20052;-89
2022/08/24 07:04:06;;;;;;;58.35;31.33;;;;;;;;;;8383553;28;20382;-89
2022/08/24 07:08:10;;;;;;;48.85;29.88;;;;;;;;;;8381146;28;20049;-89
2022/08/24 07:12:12;;;;;;;49.85;28.73;;;;;;;;;;8382853;28;20041;-89
2022/08/24 07:16:16;;;;;;;50.53;30.40;;;;;;;;;;8395605;28;20047;-89
2022/08/24 07:20:19;;;;;;;43.92;27.88;;;;;;;;;;8396046;28;20151;-89
2022/08/24 07:24:23;;;;;;;47.63;27.10;;;;;;;;;;8395821;28;20053;-89
2022/08/24 07:28:27;;;;;;;46.42;31.65;;;;;;;;;;8389615;28;20097;-88
2022/08/24 07:32:29;;;;;;;45.80;30.27;;;;;;;;;;8388023;28;20049;-89
2022/08/24 07:36:32;;;;;;;56.15;33.05;;;;;;;;;;8388855;28;20065;-90
2022/08/24 07:40:36;;;;;;;59.95;32.53;;;;;;;;;;8389497;28;20416;-90
2022/08/24 07:44:39;;;;;;;63.92;32.95;;;;;;;;;;8379900;28;20052;-89
2022/08/24 07:48:41;;;;;;;59.35;33.28;;;;;;;;;;8395108;28;20044;-89
2022/08/24 07:52:44;;;;;;;61.03;37.40;;;;;;;;;;8394996;28;20051;-89
2022/08/24 07:56:49;;;;;;;72.82;39.17;;;;;;;;;;8394666;28;20119;-89
2022/08/24 08:00:51;;;;;;;68.57;39.70;;;;;;;;;;8394717;28;20558;-90
2022/08/24 08:04:55;;;;;;;78.43;44.63;;;;;;;;;;8394231;28;20055;-89
2022/08/24 08:08:58;;;;;;;70.45;40.38;;;;;;;;;;8394084;28;20474;-89
2022/08/24 08:13:02;;;;;;;79.63;43.30;;;;;;;;;;8394245;28;20052;-90
2022/08/24 08:17:05;;;;;;;73.10;42.97;;;;;;;;;;8393894;28;20119;-89
2022/08/24 08:36:26;;;;;;;75.80;35.20;;;;;;;;;;8392581;28;20056;-89
2022/08/24 08:40:41;;;;;;;71.47;35.53;;;;;;;;;;8378010;28;20052;-89
2022/08/24 08:45:05;;;;;;;80.20;37.50;;;;;;;;;;8389115;28;20044;-89
2022/08/24 08:49:33;;;;;;;67.18;34.38;;;;;;;;;;8393357;28;20130;-89
2022/08/24 08:58:16;;;;;;;46.78;27.85;;;;;;;;;;8511863;27;1781876;-90
2022/08/24 09:02:31;;;;;;;47.30;28.48;;;;;;;;;;8556785;27;20130;-89
2022/08/24 09:06:51;;;;;;;52.33;26.27;;;;;;;;;;8556391;27;20038;-89
2022/08/24 09:11:04;;;;;;;50.97;26.67;;;;;;;;;;8551683;27;20034;-89
2022/08/24 09:15:29;;;;;;;46.92;25.17;;;;;;;;;;8556598;27;20046;-89
2022/08/24 09:19:50;;;;;;;51.30;23.90;;;;;;;;;;8555066;27;20050;-89
2022/08/24 09:24:03;;;;;;;47.75;24.02;;;;;;;;;;8555882;27;20062;-90
2022/08/24 09:28:21;;;;;;;38.17;20.27;;;;;;;;;;8549619;27;20046;-89
2022/08/24 09:32:37;;;;;;;36.80;17.73;;;;;;;;;;8555412;27;20046;-89
2022/08/24 09:36:53;;;;;;;42.22;17.27;;;;;;;;;;8555068;27;20458;-89
2022/08/24 09:41:16;;;;;;;34.60;15.85;;;;;;;;;;8555450;27;20048;-89
2022/08/24 09:46:00;;;;;;;40.03;16.27;;;;;;;;;;8545195;27;20476;-89
2022/08/24 09:50:32;;;;;;;39.50;17.13;;;;;;;;;;8550979;27;20055;-89
2022/08/24 09:55:19;;;;;;;30.80;13.15;;;;;;;;;;8550924;27;20052;-88
2022/08/24 09:59:43;;;;;;;33.55;13.55;;;;;;;;;;8543253;27;20485;-89
2022/08/24 10:04:02;;;;;;;33.33;12.85;;;;;;;;;;8554174;27;20379;-89
2022/08/24 10:08:14;;;;;;;30.85;12.77;;;;;;;;;;8538524;27;20111;-89
2022/08/24 10:12:31;;;;;;;27.05;12.18;;;;;;;;;;8530871;27;20051;-89
2022/08/24 10:16:40;;;;;;;36.17;11.38;;;;;;;;;;8526164;27;20078;-88
2022/08/24 10:21:01;;;;;;;26.15;10.93;;;;;;;;;;8517772;27;20047;-88
2022/08/24 10:25:17;;;;;;;23.00;10.48;;;;;;;;;;8530367;27;20042;-88
2022/08/24 10:29:40;;;;;;;24.88;11.55;;;;;;;;;;8530320;27;20054;-88
2022/08/24 10:33:56;;;;;;;30.35;11.40;;;;;;;;;;8523966;27;20478;-88
2022/08/24 10:47:25;;;;;;;27.95;11.07;;;;;;;;;;8526249;27;20053;-88
2022/08/24 10:51:41;;;;;;;25.67;10.23;;;;;;;;;;8523271;27;20431;-88
2022/08/24 10:55:44;;;;;;;33.63;10.93;;;;;;;;;;8521822;27;20409;-87
2022/08/24 10:59:55;;;;;;;33.42;11.32;;;;;;;;;;8519764;27;20897;-88
2022/08/24 11:04:05;;;;;;;26.60;10.38;;;;;;;;;;8525268;27;20042;-88
2022/08/24 11:08:08;;;;;;;32.13;10.75;;;;;;;;;;8528393;27;20048;-89
2022/08/24 11:12:21;;;;;;;36.47;12.05;;;;;;;;;;8518504;27;20066;-88
2022/08/24 11:16:26;;;;;;;27.73;9.70;;;;;;;;;;8525107;27;20043;-89
2022/08/24 11:20:35;;;;;;;34.28;9.70;;;;;;;;;;8529009;27;20035;-89
2022/08/24 11:24:44;;;;;;;36.08;9.48;;;;;;;;;;8523177;27;20042;-88
2022/08/24 11:28:53;;;;;;;44.57;10.67;;;;;;;;;;8522622;27;20046;-89
2022/08/24 11:33:00;;;;;;;38.47;9.75;;;;;;;;;;8504154;27;20096;-87
2022/08/24 11:37:05;;;;;;;33.00;9.20;;;;;;;;;;8528774;27;20049;-87
2022/08/24 11:41:16;;;;;;;43.30;9.15;;;;;;;;;;8529883;27;20039;-86
2022/08/24 11:45:25;;;;;;;40.20;9.70;;;;;;;;;;8530888;27;20561;-89
2022/08/24 11:49:38;;;;;;;39.40;8.77;;;;;;;;;;8523615;27;20047;-89
2022/08/24 11:53:52;;;;;;;33.15;8.07;;;;;;;;;;8519081;27;20069;-88
2022/08/24 11:58:02;;;;;;;39.25;8.65;;;;;;;;;;8526369;27;20057;-86
2022/08/24 12:02:10;;;;;;;50.20;8.27;;;;;;;;;;8520528;27;20038;-86
2022/08/24 12:06:27;;;;;;;50.75;8.40;;;;;;;;;;8518044;27;20047;-86
2022/08/24 12:10:42;;;;;;;55.58;9.23;;;;;;;;;;8520888;27;20067;-87
2022/08/24 12:14:50;;;;;;;52.90;8.50;;;;;;;;;;8518589;27;20478;-86
2022/08/24 12:18:58;;;;;;;60.17;9.65;;;;;;;;;;8512175;27;20049;-87
2022/08/24 12:23:05;;;;;;;62.47;9.73;;;;;;;;;;8523657;27;20049;-87
2022/08/24 12:27:12;;;;;;;52.22;8.70;;;;;;;;;;8522291;27;20060;-87
2022/08/24 12:31:20;;;;;;;61.45;8.80;;;;;;;;;;8525781;27;20054;-86
2022/08/24 12:35:29;;;;;;;61.53;8.98;;;;;;;;;;8522167;27;20043;-87
2022/08/24 12:39:39;;;;;;;56.60;8.65;;;;;;;;;;8525366;27;20138;-87
2022/08/24 12:43:47;;;;;;;70.03;10.20;;;;;;;;;;8525842;27;20051;-86
2022/08/24 12:48:02;;;;;;;48.33;8.55;;;;;;;;;;8519763;27;20041;-87
2022/08/24 12:52:25;;;;;;;55.30;8.48;;;;;;;;;;8520629;27;20043;-90
2022/08/24 12:56:49;;;;;;;55.13;8.90;;;;;;;;;;8522844;27;20066;-88
2022/08/24 13:00:55;;;;;;;53.22;8.15;;;;;;;;;;8526699;27;20129;-88
2022/08/24 13:05:12;;;;;;;51.80;7.35;;;;;;;;;;8525382;27;20121;-89
2022/08/24 13:09:33;;;;;;;59.20;8.73;;;;;;;;;;8529458;27;20054;-89
2022/08/24 13:13:46;;;;;;;61.03;8.93;;;;;;;;;;8530238;27;20398;-88
2022/08/24 13:17:52;;;;;;;66.00;8.35;;;;;;;;;;8530361;27;20502;-89
2022/08/24 13:21:57;;;;;;;62.60;9.05;;;;;;;;;;8525752;27;20081;-87
2022/08/24 13:26:17;;;;;;;63.65;8.25;;;;;;;;;;8526508;27;20042;-88
2022/08/24 13:30:25;;;;;;;69.15;8.25;;;;;;;;;;8525685;27;20466;-88
2022/08/24 13:34:43;;;;;;;51.92;8.90;;;;;;;;;;8530603;27;20401;-88
2022/08/24 13:38:57;;;;;;;55.38;8.45;;;;;;;;;;8523904;27;20043;-90
2022/08/24 13:43:10;;;;;;;62.60;8.93;;;;;;;;;;8529224;27;20049;-88
2022/08/24 13:47:19;;;;;;;61.08;8.88;;;;;;;;;;8531618;27;20474;-91
2022/08/24 13:51:38;;;;;;;40.03;7.18;;;;;;;;;;8533426;27;20077;-87
2022/08/24 13:55:48;;;;;;;52.80;7.28;;;;;;;;;;8533299;27;20483;-88
2022/08/24 14:00:10;;;;;;;67.97;9.90;;;;;;;;;;8530505;27;20053;-88
2022/08/24 14:04:40;;;;;;;59.00;9.82;;;;;;;;;;8532402;27;20121;-95
2022/08/24 14:08:51;;;;;;;45.97;8.40;;;;;;;;;;8535882;27;20038;-90
2022/08/24 14:12:57;;;;;;;;;;;;;;;;;;8533635;27;20042;-88
2022/08/24 14:21:39;;;;;;;55.60;8.48;;;;;;;;;;8529972;27;20528;-88
2022/08/24 14:25:44;;;;;;;56.53;8.90;;;;;;;;;;8533019;27;20122;-88
2022/08/24 14:29:48;;;;;;;46.88;8.60;;;;;;;;;;8530388;27;20038;-89
2022/08/24 14:34:00;;;;;;;50.85;7.97;;;;;;;;;;8533192;27;20050;-87
2022/08/24 14:38:32;;;;;;;61.85;8.63;;;;;;;;;;8534930;27;20239;-88
2022/08/24 14:42:45;;;;;;;60.88;8.63;;;;;;;;;;8531519;27;20110;-88
2022/08/24 14:46:55;;;;;;;38.58;8.48;;;;;;;;;;8530992;27;20107;-89
2022/08/24 14:51:06;;;;;;;58.13;9.43;;;;;;;;;;8523090;27;20050;-88
2022/08/24 14:55:19;;;;;;;51.00;7.63;;;;;;;;;;8528892;27;20055;-88
2022/08/24 14:59:39;;;;;;;50.45;9.20;;;;;;;;;;8526528;27;20043;-88
2022/08/24 15:04:07;;;;;;;51.50;8.05;;;;;;;;;;8527621;27;20043;-90
2022/08/24 15:08:33;;;;;;;59.05;8.55;;;;;;;;;;8524880;27;20043;-87
2022/08/24 15:12:46;;;;;;;40.40;6.95;;;;;;;;;;8529316;27;20409;-92
2022/08/24 15:17:03;;;;;;;48.78;8.05;;;;;;;;;;8528533;27;20050;-88
2022/08/24 15:21:23;;;;;;;50.97;7.10;;;;;;;;;;8517263;27;20047;-89
2022/08/24 15:25:36;;;;;;;54.15;8.32;;;;;;;;;;8523716;27;20107;-88
2022/08/24 15:29:51;;;;;;;47.00;8.30;;;;;;;;;;8522002;27;20042;-89
2022/08/24 15:34:01;;;;;;;47.40;8.23;;;;;;;;;;8524670;27;20130;-89
2022/08/24 15:38:21;;;;;;;44.65;8.77;;;;;;;;;;8527164;27;20056;-87
2022/08/24 15:42:25;;;;;;;50.08;8.68;;;;;;;;;;8516510;27;20421;-90
2022/08/24 15:46:35;;;;;;;49.33;8.00;;;;;;;;;;8520600;27;20451;-88
2022/08/24 15:50:47;;;;;;;52.65;9.73;;;;;;;;;;8525702;27;20042;-91
2022/08/24 15:54:58;;;;;;;29.42;5.70;;;;;;;;;;8526624;27;20054;-88
2022/08/24 15:59:09;;;;;;;22.70;7.03;;;;;;;;;;8518581;27;20095;-88
2022/08/24 16:03:26;;;;;;;25.98;5.40;;;;;;;;;;8520532;27;20046;-89
2022/08/24 16:07:53;;;;;;;18.38;4.45;;;;;;;;;;8525291;27;20082;-93
2022/08/24 16:12:02;;;;;;;19.00;4.72;;;;;;;;;;8517623;27;20031;-90
2022/08/24 16:16:14;;;;;;;12.50;3.50;;;;;;;;;;8515470;27;20067;-90
2022/08/24 16:20:31;;;;;;;15.60;4.15;;;;;;;;;;8525457;27;20149;-91
2022/08/24 16:24:37;;;;;;;17.75;4.03;;;;;;;;;;8521712;27;20069;-90
2022/08/24 16:28:39;;;;;;;20.90;4.45;;;;;;;;;;8523876;27;20095;-89
2022/08/24 16:32:53;;;;;;;17.23;5.32;;;;;;;;;;8518177;27;20047;-94
2022/08/24 16:36:56;;;;;;;18.58;4.40;;;;;;;;;;8525206;27;20046;-90
2022/08/24 16:41:02;;;;;;;12.38;5.15;;;;;;;;;;8528984;27;20550;-92
2022/08/24 16:45:06;;;;;;;21.52;4.88;;;;;;;;;;8527468;27;20490;-91
2022/08/24 16:49:09;;;;;;;89.28;50.25;;;;;;;;;;8527898;27;20043;-93
2022/08/24 16:53:12;;;;;;;51.05;29.77;;;;;;;;;;8526811;27;20153;-93
2022/08/24 16:57:19;;;;;;;41.88;19.13;;;;;;;;;;8527792;27;20053;-92
2022/08/24 17:01:21;;;;;;;18.40;6.60;;;;;;;;;;8522993;27;20042;-92
2022/08/24 17:05:24;;;;;;;13.10;5.20;;;;;;;;;;8531603;27;20055;-92
2022/08/24 17:09:26;;;;;;;13.13;5.15;;;;;;;;;;8517349;27;20634;-94
2022/08/24 17:13:31;;;;;;;15.73;5.13;;;;;;;;;;8529496;27;20405;-91
2022/08/24 17:17:34;;;;;;;15.48;5.43;;;;;;;;;;8531685;27;20047;-93
2022/08/24 17:21:37;;;;;;;10.60;5.07;;;;;;;;;;8536719;27;20050;-93
2022/08/24 17:25:40;;;;;;;22.75;6.95;;;;;;;;;;8532688;27;20042;-92
2022/08/24 17:29:45;;;;;;;22.23;7.38;;;;;;;;;;8523465;27;20117;-92
2022/08/24 17:33:51;;;;;;;18.13;6.57;;;;;;;;;;8523618;27;20060;-95
2022/08/24 17:37:55;;;;;;;17.25;5.53;;;;;;;;;;8530503;27;20049;-93
2022/08/24 17:42:00;;;;;;;11.23;6.03;;;;;;;;;;8538492;27;20133;-92
2022/08/24 17:46:07;;;;;;;14.13;5.93;;;;;;;;;;8521018;27;20034;-93
2022/08/24 17:50:12;;;;;;;19.00;6.43;;;;;;;;;;8525034;27;20061;-92
2022/08/24 17:54:14;;;;;;;15.95;6.80;;;;;;;;;;8529141;27;20478;-93
2022/08/24 17:58:17;;;;;;;19.75;6.43;;;;;;;;;;8522735;27;20145;-92
2022/08/24 18:02:21;;;;;;;20.35;7.15;;;;;;;;;;8518887;27;20057;-93
2022/08/24 18:06:26;;;;;;;15.23;6.60;;;;;;;;;;8526388;27;20038;-93
2022/08/24 18:10:31;;;;;;;14.07;7.07;;;;;;;;;;8530096;27;20504;-93
2022/08/24 18:14:35;;;;;;;20.48;7.32;;;;;;;;;;8522512;27;20058;-93
2022/08/24 18:18:41;;;;;;;18.98;8.77;;;;;;;;;;8532788;27;20121;-93
2022/08/24 18:22:46;;;;;;;26.02;11.55;;;;;;;;;;8531790;27;20042;-91
2022/08/24 18:26:49;;;;;;;27.52;13.07;;;;;;;;;;8534841;27;20039;-93
2022/08/24 18:30:51;;;;;;;23.42;12.18;;;;;;;;;;8530201;27;20095;-94
2022/08/24 18:34:56;;;;;;;25.55;11.88;;;;;;;;;;8534727;27;20046;-93
2022/08/24 18:39:01;;;;;;;18.55;9.48;;;;;;;;;;8529228;27;20054;-92
2022/08/24 18:43:07;;;;;;;27.65;10.40;;;;;;;;;;8534129;27;20043;-93
2022/08/24 18:47:11;;;;;;;19.67;8.45;;;;;;;;;;8533404;27;20043;-92
2022/08/24 18:51:22;;;;;;;17.70;7.38;;;;;;;;;;8532162;27;20042;-94
2022/08/24 18:55:27;;;;;;;19.38;7.57;;;;;;;;;;8534028;27;20520;-89
2022/08/24 18:59:36;;;;;;;20.55;7.50;;;;;;;;;;8526886;27;20496;-93
2022/08/24 19:03:41;;;;;;;17.38;7.65;;;;;;;;;;8533834;27;20472;-96
2022/08/24 19:07:50;;;;;;;18.70;7.68;;;;;;;;;;8534150;27;20050;-92
2022/08/24 19:11:53;;;;;;;17.48;8.02;;;;;;;;;;8534527;27;20052;-94
2022/08/24 19:15:56;;;;;;;16.08;7.60;;;;;;;;;;8529526;27;20057;-93
2022/08/24 19:19:59;;;;;;;20.38;7.40;;;;;;;;;;8534081;27;20087;-91
2022/08/24 19:24:06;;;;;;;21.20;8.35;;;;;;;;;;8532063;27;20050;-90
2022/08/24 19:28:09;;;;;;;19.75;8.63;;;;;;;;;;8504088;27;20039;-91
2022/08/24 19:32:19;;;;;;;19.15;8.15;;;;;;;;;;8530303;27;20043;-91
2022/08/24 19:36:22;;;;;;;19.45;8.27;;;;;;;;;;8525528;27;20047;-90
2022/08/24 19:40:26;;;;;;;21.80;7.63;;;;;;;;;;8531671;27;20042;-89
2022/08/24 19:48:51;;;;;;;18.05;8.30;;;;;;;;;;8532899;27;20126;-88
2022/08/24 19:52:56;;;;;;;22.00;9.02;;;;;;;;;;8524297;27;20446;-89
2022/08/24 19:57:21;;;;;;;20.90;8.02;;;;;;;;;;8529551;27;20413;-88
2022/08/24 20:01:26;;;;;;;21.27;9.07;;;;;;;;;;8522004;27;20137;-89
2022/08/24 20:05:29;;;;;;;15.35;8.40;;;;;;;;;;8531914;27;20087;-89
2022/08/24 20:09:32;;;;;;;18.73;8.98;;;;;;;;;;8531835;27;20138;-90
2022/08/24 20:13:37;;;;;;;24.20;9.82;;;;;;;;;;8531178;27;20050;-91
2022/08/24 20:17:39;;;;;;;20.70;9.55;;;;;;;;;;8525971;27;20082;-90
2022/08/24 20:21:42;;;;;;;22.92;11.25;;;;;;;;;;8531795;27;20053;-88
2022/08/24 20:25:44;;;;;;;20.52;12.07;;;;;;;;;;8522052;27;20486;-90
2022/08/24 20:29:49;;;;;;;25.50;12.68;;;;;;;;;;8531200;27;20046;-88
2022/08/24 20:33:51;;;;;;;26.50;12.75;;;;;;;;;;8531083;27;20125;-89
2022/08/24 20:37:55;;;;;;;20.27;11.02;;;;;;;;;;8530760;27;20050;-89
2022/08/24 20:41:58;;;;;;;28.58;10.65;;;;;;;;;;8530772;27;20081;-91
2022/08/24 20:46:03;;;;;;;21.70;10.48;;;;;;;;;;8531110;27;20050;-91
2022/08/24 20:50:07;;;;;;;24.60;10.80;;;;;;;;;;8530905;27;20046;-92
2022/08/24 20:54:10;;;;;;;20.80;10.20;;;;;;;;;;8530872;27;20071;-88
2022/08/24 20:58:17;;;;;;;20.60;9.82;;;;;;;;;;8523722;27;20058;-92
2022/08/24 21:02:21;;;;;;;26.98;9.43;;;;;;;;;;8524204;27;20504;-91
2022/08/24 21:06:23;;;;;;;18.67;8.43;;;;;;;;;;8524158;27;20104;-91
2022/08/24 21:10:26;;;;;;;21.25;9.05;;;;;;;;;;8528373;27;20057;-92
2022/08/24 21:14:29;;;;;;;17.50;8.60;;;;;;;;;;8527719;27;20117;-91
2022/08/24 21:18:33;;;;;;;17.98;8.77;;;;;;;;;;8530330;27;20057;-91
2022/08/24 21:22:36;;;;;;;18.02;8.38;;;;;;;;;;8530200;27;20050;-91
2022/08/24 21:26:39;;;;;;;26.00;8.93;;;;;;;;;;8530268;27;20070;-88
2022/08/24 21:30:41;;;;;;;18.27;8.38;;;;;;;;;;8529892;27;20125;-87
2022/08/24 21:34:46;;;;;;;25.60;9.38;;;;;;;;;;8530356;27;20466;-89
2022/08/24 21:38:51;;;;;;;18.40;9.02;;;;;;;;;;8529972;27;20466;-91
2022/08/24 21:42:54;;;;;;;14.60;8.48;;;;;;;;;;8530040;27;20064;-89
2022/08/24 21:46:57;;;;;;;17.55;8.73;;;;;;;;;;8524363;27;20447;-88
2022/08/24 21:51:01;;;;;;;19.88;8.85;;;;;;;;;;8529927;27;20038;-88
2022/08/24 21:55:03;;;;;;;17.55;9.10;;;;;;;;;;8522475;27;20418;-90
2022/08/24 21:59:07;;;;;;;20.70;9.05;;;;;;;;;;8523350;27;20062;-87
2022/08/24 22:03:10;;;;;;;15.23;7.70;;;;;;;;;;8524537;27;20478;-89
2022/08/24 22:07:14;;;;;;;14.70;8.35;;;;;;;;;;8535652;27;20041;-88
2022/08/24 22:11:19;;;;;;;16.95;8.23;;;;;;;;;;8523013;27;20055;-88
2022/08/24 22:15:22;;;;;;;23.48;10.07;;;;;;;;;;8534645;27;20039;-88
2022/08/24 22:19:24;;;;;;;16.95;9.05;;;;;;;;;;8534999;27;20045;-87
2022/08/24 22:23:28;;;;;;;18.83;9.82;;;;;;;;;;8534987;27;20047;-87
2022/08/24 22:27:31;;;;;;;16.73;9.30;;;;;;;;;;8534942;27;20440;-89
2022/08/24 22:31:36;;;;;;;20.13;8.80;;;;;;;;;;8534945;27;20057;-87
2022/08/24 22:35:40;;;;;;;21.83;9.30;;;;;;;;;;8534700;27;20057;-88
2022/08/24 22:39:44;;;;;;;19.60;9.80;;;;;;;;;;8534962;27;20443;-86
2022/08/24 22:48:07;;;;;;;21.85;9.68;;;;;;;;;;8534169;27;20035;-87
2022/08/24 22:52:11;;;;;;;17.40;9.63;;;;;;;;;;8533932;27;20043;-87
2022/08/24 22:56:18;;;;;;;23.23;10.30;;;;;;;;;;8533760;27;20051;-87
2022/08/24 23:00:21;;;;;;;21.10;10.35;;;;;;;;;;8533720;27;20042;-87
2022/08/24 23:04:29;;;;;;;23.17;10.43;;;;;;;;;;8533558;27;20122;-87
2022/08/24 23:08:31;;;;;;;17.58;9.98;;;;;;;;;;8533499;27;20117;-87
2022/08/24 23:12:35;;;;;;;16.95;10.52;;;;;;;;;;8526594;27;20046;-87
2022/08/24 23:16:43;;;;;;;20.77;9.82;;;;;;;;;;8533307;27;20046;-87
2022/08/24 23:20:45;;;;;;;17.63;10.00;;;;;;;;;;8532168;27;20043;-87
2022/08/24 23:24:48;;;;;;;19.33;10.52;;;;;;;;;;8532830;27;20478;-87
2022/08/24 23:28:52;;;;;;;19.55;10.15;;;;;;;;;;8525836;27;20047;-88
2022/08/24 23:32:55;;;;;;;15.50;10.45;;;;;;;;;;8532159;27;20046;-87
2022/08/24 23:36:57;;;;;;;17.30;9.98;;;;;;;;;;8532496;27;20087;-87
2022/08/24 23:41:00;;;;;;;18.73;10.18;;;;;;;;;;8532326;27;20069;-87
2022/08/24 23:45:04;;;;;;;21.48;9.93;;;;;;;;;;8532055;27;20039;-87
2022/08/24 23:49:08;;;;;;;16.70;10.32;;;;;;;;;;8532153;27;20047;-86
2022/08/24 23:53:19;;;;;;;19.40;9.65;;;;;;;;;;8527652;27;20441;-89
2022/08/24 23:57:24;;;;;;;18.90;9.43;;;;;;;;;;8529220;27;20054;-88
